createdAt,value
2019-01-28T00:01:50.892Z,65.10
2019-01-28T00:04:16.865Z,65.73
2019-01-28T00:06:42.797Z,72.07
2019-01-28T00:09:08.699Z,63.10
2019-01-28T00:11:34.677Z,76.53
2019-01-28T00:14:00.734Z,78.23
2019-01-28T00:16:29.058Z,66.27
2019-01-28T00:18:54.928Z,69.13
2019-01-28T00:21:20.813Z,81.07
2019-01-28T00:23:46.736Z,75.17
2019-01-28T00:26:12.622Z,70.73
2019-01-28T00:28:38.493Z,73.87
2019-01-28T00:31:08.059Z,75.57
2019-01-28T00:33:33.935Z,85.57
2019-01-28T00:35:59.864Z,81.30
2019-01-28T00:38:25.794Z,87.53
2019-01-28T00:40:51.717Z,72.33
2019-01-28T00:43:17.757Z,74.00
2019-01-28T00:45:43.625Z,79.23
2019-01-28T00:48:09.506Z,69.73
2019-01-28T00:50:35.529Z,73.07
2019-01-28T00:53:01.433Z,69.40
2019-01-28T00:55:27.330Z,68.30
2019-01-28T00:57:53.305Z,65.03
2019-01-28T01:00:21.479Z,67.67
2019-01-28T01:02:47.349Z,61.07
2019-01-28T01:05:13.275Z,66.00
2019-01-28T01:07:39.142Z,66.63
2019-01-28T01:10:08.215Z,72.30
2019-01-28T01:12:34.251Z,74.93
2019-01-28T01:15:00.196Z,74.30
2019-01-28T01:17:26.148Z,68.37
2019-01-28T01:19:52.047Z,71.70
2019-01-28T01:22:17.974Z,68.63
2019-01-28T01:24:43.852Z,73.27
2019-01-28T01:27:09.747Z,72.00
2019-01-28T01:29:35.631Z,74.23
2019-01-28T01:32:01.531Z,75.53
2019-01-28T01:34:27.531Z,75.83
2019-01-28T01:36:53.414Z,72.37
2019-01-28T01:39:19.289Z,76.13
2019-01-28T01:41:45.156Z,58.43
2019-01-28T01:44:11.057Z,77.87
2019-01-28T01:46:37.057Z,80.23
2019-01-28T01:49:02.900Z,80.40
2019-01-28T01:51:28.931Z,85.93
2019-01-28T01:53:54.796Z,83.23
2019-01-28T01:56:20.642Z,84.47
2019-01-28T01:58:46.570Z,88.60
2019-01-28T02:01:12.554Z,86.27
2019-01-28T02:03:38.549Z,84.13
2019-01-28T02:06:04.436Z,81.47
2019-01-28T02:08:30.312Z,79.87
2019-01-28T02:10:56.299Z,77.73
2019-01-28T02:13:22.194Z,75.90
2019-01-28T02:15:48.037Z,82.97
2019-01-28T02:18:14.054Z,83.63
2019-01-28T02:20:39.983Z,77.30
2019-01-28T02:23:05.868Z,69.30
2019-01-28T02:25:31.777Z,70.30
2019-01-28T02:27:57.663Z,74.37
2019-01-28T02:30:23.529Z,84.67
2019-01-28T02:32:49.489Z,80.47
2019-01-28T02:35:15.401Z,89.83
2019-01-28T02:37:41.270Z,90.67
2019-01-28T02:40:13.421Z,87.17
2019-01-28T02:42:39.273Z,86.70
2019-01-28T02:45:07.159Z,91.27
2019-01-28T02:47:33.038Z,92.27
2019-01-28T02:49:58.917Z,93.93
2019-01-28T02:52:24.777Z,77.73
2019-01-28T02:54:50.679Z,92.97
2019-01-28T02:57:16.542Z,94.70
2019-01-28T02:59:42.450Z,87.47
2019-01-28T03:02:08.360Z,90.23
2019-01-28T03:04:34.280Z,85.43
2019-01-28T03:07:00.131Z,93.27
2019-01-28T03:09:26.038Z,91.20
2019-01-28T03:11:51.935Z,86.03
2019-01-28T03:14:17.822Z,87.73
2019-01-28T03:16:43.847Z,94.17
2019-01-28T03:19:09.723Z,87.03
2019-01-28T03:21:35.589Z,93.80
2019-01-28T03:24:01.445Z,84.03
2019-01-28T03:26:27.327Z,92.73
2019-01-28T03:28:53.267Z,84.90
2019-01-28T03:31:19.240Z,84.97
2019-01-28T03:33:48.254Z,87.10
2019-01-28T03:36:14.166Z,88.83
2019-01-28T03:38:40.168Z,98.07
2019-01-28T03:41:06.042Z,92.57
2019-01-28T03:43:32.221Z,90.57
2019-01-28T03:45:58.202Z,89.60
2019-01-28T03:48:24.204Z,95.20
2019-01-28T03:50:50.284Z,91.33
2019-01-28T03:53:16.560Z,86.37
2019-01-28T03:55:42.438Z,95.53
2019-01-28T03:58:08.324Z,89.27
2019-01-28T04:00:34.238Z,93.77
2019-01-28T04:03:00.209Z,85.80
2019-01-28T04:05:26.211Z,94.87
2019-01-28T04:07:52.092Z,88.53
2019-01-28T04:10:20.018Z,86.73
2019-01-28T04:12:45.999Z,81.87
2019-01-28T04:15:14.314Z,79.13
2019-01-28T04:17:40.237Z,83.13
2019-01-28T04:20:09.009Z,84.07
2019-01-28T04:22:34.862Z,84.03
2019-01-28T04:25:00.798Z,80.03
2019-01-28T04:27:26.683Z,80.27
2019-01-28T04:29:52.557Z,87.00
2019-01-28T04:32:18.493Z,88.03
2019-01-28T04:34:44.412Z,85.83
2019-01-28T04:37:10.272Z,82.30
2019-01-28T04:39:36.193Z,87.77
2019-01-28T04:42:02.067Z,90.37
2019-01-28T04:44:27.953Z,89.17
2019-01-28T04:46:53.970Z,80.07
2019-01-28T04:49:19.846Z,83.37
2019-01-28T04:51:45.840Z,88.40
2019-01-28T04:54:11.747Z,86.23
2019-01-28T04:56:37.607Z,83.23
2019-01-28T04:59:03.492Z,83.90
2019-01-28T05:01:29.409Z,82.53
2019-01-28T05:03:55.411Z,84.03
2019-01-28T05:06:21.284Z,83.00
2019-01-28T05:08:47.188Z,75.93
2019-01-28T05:11:13.089Z,78.73
2019-01-28T05:13:38.960Z,75.80
2019-01-28T05:16:04.821Z,73.40
2019-01-28T05:18:30.693Z,75.97
2019-01-28T05:20:56.594Z,77.80
2019-01-28T05:23:22.501Z,74.20
2019-01-28T05:25:48.361Z,72.43
2019-01-28T05:28:14.314Z,75.23
2019-01-28T05:30:40.189Z,75.20
2019-01-28T05:33:06.051Z,77.47
2019-01-28T05:35:31.940Z,80.30
2019-01-28T05:37:57.882Z,78.67
2019-01-28T05:40:23.870Z,76.17
2019-01-28T05:42:49.862Z,85.77
2019-01-28T05:45:17.314Z,90.30
2019-01-28T05:47:43.219Z,77.57
2019-01-28T05:50:10.458Z,79.97
2019-01-28T05:52:36.433Z,81.83
2019-01-28T05:55:02.893Z,81.73
2019-01-28T05:57:28.853Z,82.60
2019-01-28T05:59:54.719Z,80.70
2019-01-28T06:02:20.679Z,83.67
2019-01-28T06:04:46.577Z,82.63
2019-01-28T06:07:13.357Z,83.47
2019-01-28T06:09:39.363Z,82.03
2019-01-28T06:12:05.235Z,80.63
2019-01-28T06:14:31.125Z,77.93
2019-01-28T06:16:56.992Z,72.00
2019-01-28T06:19:22.859Z,75.30
2019-01-28T06:21:48.730Z,81.03
2019-01-28T06:24:14.734Z,81.27
2019-01-28T06:26:40.700Z,90.10
2019-01-28T06:29:06.553Z,86.33
2019-01-28T06:31:32.477Z,76.77
2019-01-28T06:33:58.332Z,77.23
2019-01-28T06:36:24.207Z,87.93
2019-01-28T06:38:50.140Z,77.00
2019-01-28T06:41:16.035Z,87.40
2019-01-28T06:43:41.903Z,83.17
2019-01-28T06:46:07.852Z,80.00
2019-01-28T06:48:33.724Z,82.77
2019-01-28T06:50:59.664Z,79.93
2019-01-28T06:53:25.547Z,80.33
2019-01-28T06:55:51.449Z,82.13
2019-01-28T06:58:17.378Z,75.20
2019-01-28T07:00:43.259Z,76.20
2019-01-28T07:03:09.151Z,79.80
2019-01-28T07:05:35.677Z,75.23
2019-01-28T07:08:01.565Z,81.23
2019-01-28T07:10:27.430Z,79.87
2019-01-28T07:12:53.364Z,76.70
2019-01-28T07:15:20.438Z,81.57
2019-01-28T07:17:46.308Z,83.17
2019-01-28T07:20:15.036Z,81.53
2019-01-28T07:22:40.915Z,81.23
2019-01-28T07:25:06.796Z,82.40
2019-01-28T07:27:32.707Z,82.10
2019-01-28T07:29:58.566Z,85.03
2019-01-28T07:32:24.647Z,80.50
2019-01-28T07:34:50.541Z,82.77
2019-01-28T07:37:16.494Z,79.07
2019-01-28T07:39:42.468Z,81.07
2019-01-28T07:42:08.380Z,79.17
2019-01-28T07:44:34.263Z,77.47
2019-01-28T07:47:00.174Z,70.30
2019-01-28T07:49:26.081Z,75.30
2019-01-28T07:51:51.926Z,78.17
2019-01-28T07:54:17.792Z,72.03
2019-01-28T07:56:43.666Z,72.83
2019-01-28T07:59:09.613Z,73.23
2019-01-28T08:01:35.535Z,73.40
2019-01-28T08:04:01.424Z,70.63
2019-01-28T08:06:27.273Z,71.37
2019-01-28T08:08:53.198Z,72.67
2019-01-28T08:11:19.056Z,71.50
2019-01-28T08:13:44.942Z,69.43
2019-01-28T08:16:10.832Z,71.23
2019-01-28T08:18:36.733Z,73.50
2019-01-28T08:21:02.633Z,69.43
2019-01-28T08:23:28.739Z,73.70
2019-01-28T08:25:55.810Z,72.87
2019-01-28T08:28:21.706Z,76.63
2019-01-28T08:30:47.703Z,82.90
2019-01-28T08:33:13.588Z,76.57
2019-01-28T08:35:39.444Z,74.07
2019-01-28T08:38:05.372Z,75.27
2019-01-28T08:40:34.775Z,69.93
2019-01-28T08:43:00.655Z,67.20
2019-01-28T08:45:26.542Z,67.17
2019-01-28T08:47:52.425Z,64.97
2019-01-28T08:50:20.601Z,70.87
2019-01-28T08:52:46.487Z,75.90
2019-01-28T08:55:15.143Z,75.60
2019-01-28T08:57:41.015Z,79.27
2019-01-28T09:00:13.161Z,85.33
2019-01-28T09:02:39.098Z,75.57
2019-01-28T09:05:06.468Z,75.47
2019-01-28T09:07:32.591Z,64.37
2019-01-28T09:09:58.508Z,64.80
2019-01-28T09:12:24.388Z,63.87
2019-01-28T09:14:50.293Z,64.47
2019-01-28T09:17:16.186Z,61.17
2019-01-28T09:19:42.050Z,63.00
2019-01-28T09:22:07.953Z,62.83
2019-01-28T09:24:33.860Z,64.10
2019-01-28T09:26:59.763Z,62.10
2019-01-28T09:29:25.652Z,62.20
2019-01-28T09:31:51.601Z,63.67
2019-01-28T09:34:17.486Z,64.93
2019-01-28T09:36:43.383Z,63.90
2019-01-28T09:39:09.348Z,61.70
2019-01-28T09:41:38.560Z,61.20
2019-01-28T09:44:08.504Z,63.30
2019-01-28T09:46:34.492Z,63.40
2019-01-28T09:49:00.439Z,64.33
2019-01-28T09:51:32.173Z,56.97
2019-01-28T09:53:58.168Z,58.00
2019-01-28T09:56:24.212Z,54.33
2019-01-28T09:58:50.422Z,55.70
2019-01-28T10:01:16.355Z,56.17
2019-01-28T10:03:42.267Z,54.03
2019-01-28T10:06:08.180Z,55.40
2019-01-28T10:08:34.373Z,53.77
2019-01-28T10:11:00.311Z,54.77
2019-01-28T10:13:26.357Z,54.40
2019-01-28T10:15:52.446Z,54.50
2019-01-28T10:18:18.423Z,55.43
2019-01-28T10:20:45.472Z,51.13
2019-01-28T10:23:11.601Z,47.00
2019-01-28T10:25:37.485Z,54.43
2019-01-28T10:28:03.460Z,59.27
2019-01-28T10:30:32.330Z,66.73
2019-01-28T10:32:58.240Z,73.27
2019-01-28T10:35:25.768Z,66.83
2019-01-28T10:37:51.652Z,70.43
2019-01-28T10:40:23.250Z,69.63
2019-01-28T10:42:49.169Z,71.30
2019-01-28T10:45:15.348Z,77.27
2019-01-28T10:47:41.221Z,75.67
2019-01-28T10:50:13.455Z,74.80
2019-01-28T10:52:39.352Z,75.00
2019-01-28T10:55:06.960Z,87.37
2019-01-28T10:57:36.145Z,81.20
2019-01-28T11:00:11.401Z,79.93
2019-01-28T11:02:33.914Z,86.83
2019-01-28T11:04:59.823Z,83.63
2019-01-28T11:07:25.693Z,78.13
2019-01-28T11:09:51.679Z,82.40
2019-01-28T11:12:17.783Z,82.07
2019-01-28T11:14:43.659Z,79.33
2019-01-28T11:17:09.515Z,75.70
2019-01-28T11:19:35.546Z,75.07
2019-01-28T11:22:01.407Z,80.63
2019-01-28T11:24:27.267Z,79.10
2019-01-28T11:26:53.218Z,85.07
2019-01-28T11:29:19.257Z,85.93
2019-01-28T11:31:45.150Z,87.47
2019-01-28T11:34:11.049Z,84.10
2019-01-28T11:36:37.037Z,89.50
2019-01-28T11:39:04.658Z,79.53
2019-01-28T11:41:30.564Z,79.60
2019-01-28T11:43:56.581Z,87.97
2019-01-28T11:46:22.437Z,78.77
2019-01-28T11:48:48.385Z,81.33
2019-01-28T11:51:14.288Z,71.47
2019-01-28T11:53:40.156Z,74.97
2019-01-28T11:56:06.178Z,76.20
2019-01-28T11:58:32.036Z,80.53
2019-01-28T12:01:01.650Z,80.07
2019-01-28T12:03:27.540Z,80.77
2019-01-28T12:05:53.409Z,86.10
2019-01-28T12:08:19.422Z,87.73
2019-01-28T12:10:45.769Z,82.87
2019-01-28T12:13:11.625Z,81.90
2019-01-28T12:15:37.477Z,84.07
2019-01-28T12:18:05.892Z,79.13
2019-01-28T12:20:31.920Z,76.43
2019-01-28T12:22:57.956Z,76.20
2019-01-28T12:25:23.813Z,69.80
2019-01-28T12:27:49.684Z,68.43
2019-01-28T12:30:19.424Z,68.27
2019-01-28T12:32:45.267Z,68.60
2019-01-28T12:35:19.752Z,62.23
2019-01-28T12:37:45.643Z,60.43
2019-01-28T12:40:14.886Z,56.63
2019-01-28T12:42:40.784Z,53.97
2019-01-28T12:45:14.164Z,58.93
2019-01-28T12:47:40.195Z,58.73
2019-01-28T12:50:11.179Z,59.93
2019-01-28T12:52:37.045Z,60.27
2019-01-28T12:55:06.203Z,58.23
2019-01-28T12:57:32.102Z,47.33
2019-01-28T12:59:57.977Z,46.37
2019-01-28T13:02:23.934Z,44.90
2019-01-28T13:04:49.790Z,42.47
2019-01-28T13:07:15.673Z,44.53
2019-01-28T13:09:41.666Z,42.23
2019-01-28T13:12:07.649Z,39.03
2019-01-28T13:14:34.183Z,32.17
2019-01-28T13:17:00.210Z,32.53
2019-01-28T13:19:30.213Z,30.03
2019-01-28T13:21:53.884Z,27.57
2019-01-28T13:24:19.753Z,26.23
2019-01-28T13:26:45.678Z,29.60
2019-01-28T13:29:11.538Z,26.90
2019-01-28T13:31:38.126Z,26.77
2019-01-28T13:34:04.226Z,31.53
2019-01-28T13:36:30.094Z,29.80
2019-01-28T13:38:55.937Z,30.00
2019-01-28T13:41:21.896Z,30.47
2019-01-28T13:43:47.809Z,51.40
2019-01-28T13:46:13.858Z,50.03
2019-01-28T13:48:39.720Z,53.00
2019-01-28T13:51:06.493Z,47.47
2019-01-28T13:53:32.588Z,37.33
2019-01-28T13:55:58.432Z,34.77
2019-01-28T13:58:24.419Z,32.07
2019-01-28T14:00:54.467Z,29.77
2019-01-28T14:03:20.349Z,27.57
2019-01-28T14:05:46.205Z,26.90
2019-01-28T14:08:12.092Z,24.83
2019-01-28T14:10:38.026Z,23.70
2019-01-28T14:13:03.900Z,25.37
2019-01-28T14:15:32.927Z,23.57
2019-01-28T14:17:58.934Z,19.83
2019-01-28T14:20:27.018Z,18.00
2019-01-28T14:22:52.873Z,19.10
2019-01-28T14:25:18.772Z,19.67
2019-01-28T14:27:49.545Z,19.70
2019-01-28T14:30:15.816Z,20.77
2019-01-28T14:32:41.779Z,21.67
2019-01-28T14:35:07.644Z,24.57
2019-01-28T14:37:33.689Z,23.13
2019-01-28T14:39:59.575Z,24.73
2019-01-28T14:42:25.487Z,23.07
2019-01-28T14:44:51.362Z,22.83
2019-01-28T14:47:17.409Z,23.57
2019-01-28T14:49:43.274Z,22.30
2019-01-28T14:52:09.303Z,22.30
2019-01-28T14:54:35.191Z,20.87
2019-01-28T14:57:01.092Z,21.63
2019-01-28T14:59:27.090Z,23.07
2019-01-28T15:01:53.044Z,23.40
2019-01-28T15:04:18.886Z,23.43
2019-01-28T15:06:49.482Z,25.60
2019-01-28T15:09:21.424Z,26.87
2019-01-28T15:11:47.257Z,27.73
2019-01-28T15:14:13.155Z,28.80
2019-01-28T15:16:38.998Z,27.43
2019-01-28T15:19:04.974Z,28.90
2019-01-28T15:21:30.867Z,29.57
2019-01-28T15:23:56.740Z,29.00
2019-01-28T15:26:22.665Z,29.93
2019-01-28T15:28:48.731Z,30.70
2019-01-28T15:31:14.584Z,30.57
2019-01-28T15:33:40.499Z,30.93
2019-01-28T15:36:06.394Z,31.07
2019-01-28T15:38:32.350Z,31.23
2019-01-28T15:40:58.246Z,30.37
2019-01-28T15:43:24.130Z,29.37
2019-01-28T15:45:53.528Z,30.00
2019-01-28T15:48:19.450Z,32.17
2019-01-28T15:50:45.337Z,31.17
2019-01-28T15:53:13.184Z,31.73
2019-01-28T15:55:39.769Z,31.63
2019-01-28T15:58:08.436Z,33.23
2019-01-28T16:00:39.796Z,33.17
2019-01-28T16:03:07.604Z,33.27
2019-01-28T16:05:36.800Z,33.43
2019-01-28T16:08:03.587Z,31.77
2019-01-28T16:10:29.486Z,29.37
2019-01-28T16:12:55.523Z,27.00
2019-01-28T16:15:28.682Z,28.37
2019-01-28T16:17:54.715Z,29.77
2019-01-28T16:20:20.756Z,28.90
2019-01-28T16:22:46.843Z,28.30
2019-01-28T16:25:12.729Z,27.40
2019-01-28T16:27:38.742Z,28.10
2019-01-28T16:30:28.183Z,28.77
2019-01-28T16:32:56.013Z,31.23
2019-01-28T16:35:22.058Z,32.80
2019-01-28T16:37:49.267Z,34.37
2019-01-28T16:40:17.480Z,33.70
2019-01-28T16:42:43.510Z,35.77
2019-01-28T16:45:12.209Z,36.30
2019-01-28T16:47:38.169Z,36.73
2019-01-28T16:50:07.634Z,35.97
2019-01-28T16:52:33.548Z,37.17
2019-01-28T16:54:59.406Z,35.60
2019-01-28T16:57:25.336Z,38.10
2019-01-28T16:59:51.225Z,38.83
2019-01-28T17:02:17.090Z,39.93
2019-01-28T17:04:42.978Z,37.83
2019-01-28T17:07:08.904Z,38.67
2019-01-28T17:09:34.848Z,37.33
2019-01-28T17:12:00.903Z,34.87
2019-01-28T17:14:26.764Z,36.70
2019-01-28T17:16:52.636Z,35.97
2019-01-28T17:19:18.553Z,36.33
2019-01-28T17:21:44.399Z,34.93
2019-01-28T17:24:10.288Z,36.30
2019-01-28T17:26:36.193Z,36.57
2019-01-28T17:29:02.106Z,36.80
2019-01-28T17:31:28.006Z,37.10
2019-01-28T17:33:53.893Z,38.00
2019-01-28T17:36:19.872Z,34.80
2019-01-28T17:38:45.901Z,36.03
2019-01-28T17:41:11.896Z,36.33
2019-01-28T17:43:37.817Z,37.00
2019-01-28T17:46:03.681Z,37.30
2019-01-28T17:48:29.619Z,36.57
2019-01-28T17:50:55.569Z,37.57
2019-01-28T17:53:21.490Z,37.67
2019-01-28T17:55:47.397Z,37.20
2019-01-28T17:58:13.302Z,37.10
2019-01-28T18:00:50.143Z,35.97
2019-01-28T18:03:16.376Z,37.80
2019-01-28T18:05:42.340Z,36.10
2019-01-28T18:08:08.243Z,38.97
2019-01-28T18:10:34.100Z,38.60
2019-01-28T18:13:00.000Z,37.47
2019-01-28T18:15:26.752Z,40.43
2019-01-28T18:17:52.680Z,40.07
2019-01-28T18:20:18.568Z,39.17
2019-01-28T18:22:45.632Z,40.03
2019-01-28T18:25:13.920Z,39.37
2019-01-28T18:27:39.786Z,41.73
2019-01-28T18:30:09.504Z,47.47
2019-01-28T18:32:35.393Z,43.73
2019-01-28T18:35:01.398Z,43.90
2019-01-28T18:37:27.478Z,45.63
2019-01-28T18:39:53.347Z,49.23
2019-01-28T18:42:19.230Z,50.03
2019-01-28T18:44:45.103Z,50.03
2019-01-28T18:47:11.088Z,51.90
2019-01-28T18:49:40.274Z,52.53
2019-01-28T18:52:06.136Z,49.10
2019-01-28T18:54:32.060Z,50.17
2019-01-28T18:56:57.962Z,51.93
2019-01-28T18:59:23.815Z,50.57
2019-01-28T19:01:49.699Z,50.73
2019-01-28T19:04:15.587Z,52.60
2019-01-28T19:06:59.996Z,50.93
2019-01-28T19:09:27.780Z,54.63
2019-01-28T19:11:58.303Z,52.73
2019-01-28T19:14:32.222Z,53.30
2019-01-28T19:17:03.232Z,53.17
2019-01-28T19:19:31.017Z,51.50
2019-01-28T19:21:58.941Z,50.27
2019-01-28T19:24:24.830Z,51.77
2019-01-28T19:26:50.836Z,55.73
2019-01-28T19:29:16.814Z,51.10
2019-01-28T19:31:42.700Z,50.73
2019-01-28T19:34:08.551Z,50.03
2019-01-28T19:36:34.545Z,48.20
2019-01-28T19:39:00.446Z,47.87
2019-01-28T19:41:26.330Z,48.57
2019-01-28T19:43:52.203Z,47.67
2019-01-28T19:46:18.097Z,44.50
2019-01-28T19:48:44.001Z,44.00
2019-01-28T19:51:15.570Z,40.93
2019-01-28T19:53:37.722Z,41.80
2019-01-28T19:56:03.640Z,43.93
2019-01-28T19:58:29.611Z,41.40
2019-01-28T20:00:55.462Z,43.37
2019-01-28T20:03:21.384Z,43.03
2019-01-28T20:05:47.357Z,43.83
2019-01-28T20:08:15.033Z,43.33
2019-01-28T20:10:41.172Z,44.13
2019-01-28T20:13:07.058Z,43.63
2019-01-28T20:15:33.099Z,44.23
2019-01-28T20:17:58.989Z,45.40
2019-01-28T20:20:24.868Z,45.70
2019-01-28T20:22:51.728Z,45.83
2019-01-28T20:25:18.151Z,45.80
2019-01-28T20:27:44.142Z,45.20
2019-01-28T20:30:16.818Z,44.03
2019-01-28T20:32:42.728Z,45.33
2019-01-28T20:35:10.754Z,42.93
2019-01-28T20:37:36.671Z,45.67
2019-01-28T20:40:05.970Z,45.77
2019-01-28T20:42:31.908Z,44.20
2019-01-28T20:44:57.827Z,43.40
2019-01-28T20:47:23.801Z,44.33
2019-01-28T20:49:49.702Z,44.17
2019-01-28T20:52:15.646Z,43.40
2019-01-28T20:54:41.564Z,44.23
2019-01-28T20:57:07.506Z,42.03
2019-01-28T20:59:33.389Z,43.27
2019-01-28T21:01:59.256Z,43.80
2019-01-28T21:04:25.178Z,39.70
2019-01-28T21:06:51.100Z,39.73
2019-01-28T21:09:16.993Z,40.20
2019-01-28T21:11:42.850Z,40.60
2019-01-28T21:14:08.739Z,39.50
2019-01-28T21:16:34.761Z,40.37
2019-01-28T21:19:00.616Z,41.60
2019-01-28T21:21:26.473Z,41.77
2019-01-28T21:23:52.387Z,38.53
2019-01-28T21:26:18.317Z,37.43
2019-01-28T21:28:44.238Z,40.03
2019-01-28T21:31:10.125Z,38.73
2019-01-28T21:33:36.100Z,38.07
2019-01-28T21:36:15.904Z,38.37
2019-01-28T21:38:43.672Z,39.43
2019-01-28T21:41:09.571Z,38.20
2019-01-28T21:43:35.535Z,38.63
2019-01-28T21:46:01.475Z,37.87
2019-01-28T21:48:27.332Z,37.53
2019-01-28T21:50:53.713Z,36.60
2019-01-28T21:53:19.626Z,38.20
2019-01-28T21:55:45.540Z,39.20
2019-01-28T21:58:11.396Z,38.57
2019-01-28T22:00:37.292Z,37.87
2019-01-28T22:03:03.533Z,38.10
2019-01-28T22:05:29.382Z,37.97
2019-01-28T22:07:55.368Z,38.00
2019-01-28T22:10:21.297Z,37.10
2019-01-28T22:12:47.323Z,39.83
2019-01-28T22:15:16.931Z,37.87
2019-01-28T22:17:42.816Z,37.00
2019-01-28T22:20:10.871Z,38.13
2019-01-28T22:22:36.758Z,37.10
2019-01-28T22:25:11.633Z,37.27
2019-01-28T22:27:37.515Z,35.73
2019-01-28T22:30:07.199Z,36.60
2019-01-28T22:32:33.115Z,36.70
2019-01-28T22:34:58.980Z,35.70
2019-01-28T22:37:24.857Z,35.57
2019-01-28T22:39:50.859Z,36.43
2019-01-28T22:42:21.409Z,36.47
2019-01-28T22:44:44.490Z,36.90
2019-01-28T22:47:10.376Z,36.40
2019-01-28T22:49:36.571Z,35.47
2019-01-28T22:52:07.651Z,36.47
2019-01-28T22:54:30.343Z,35.87
2019-01-28T22:56:56.225Z,35.17
2019-01-28T22:59:22.162Z,36.53
2019-01-28T23:01:48.180Z,35.27
2019-01-28T23:04:14.046Z,35.80
2019-01-28T23:06:39.957Z,35.53
2019-01-28T23:09:07.855Z,34.97
2019-01-28T23:11:33.732Z,33.47
2019-01-28T23:13:59.787Z,34.73
2019-01-28T23:16:25.638Z,34.43
2019-01-28T23:18:51.532Z,33.23
2019-01-28T23:21:17.381Z,31.80
2019-01-28T23:23:43.271Z,33.13
2019-01-28T23:26:09.198Z,33.17
2019-01-28T23:28:35.048Z,32.53
2019-01-28T23:31:01.067Z,33.40
2019-01-28T23:33:26.937Z,33.93
2019-01-28T23:35:52.783Z,32.30
2019-01-28T23:38:18.693Z,32.60
2019-01-28T23:40:44.636Z,31.13
2019-01-28T23:43:10.476Z,32.67
2019-01-28T23:45:36.350Z,33.67
2019-01-28T23:48:02.307Z,32.53
2019-01-28T23:50:28.155Z,34.03
2019-01-28T23:52:54.048Z,34.00
2019-01-28T23:55:23.650Z,32.53
2019-01-28T23:57:56.637Z,33.30
